sensor_id;sensor_type;location;lat;lon;timestamp;P1;durP1;ratioP1;P2;durP2;ratioP2
25531;SDS011;13429;48.816;9.118;2022-10-30T00:00:39;14.27;;;6.38;;
25531;SDS011;13429;48.816;9.118;2022-10-30T00:03:05;16.95;;;6.82;;
25531;SDS011;13429;48.816;9.118;2022-10-30T00:05:31;18.13;;;6.72;;
25531;SDS011;13429;48.816;9.118;2022-10-30T00:07:57;10.77;;;5.15;;
25531;SDS011;13429;48.816;9.118;2022-10-30T00:10:23;15.60;;;6.85;;
25531;SDS011;13429;48.816;9.118;2022-10-30T00:12:49;12.30;;;6.00;;
25531;SDS011;13429;48.816;9.118;2022-10-30T00:15:16;15.57;;;6.60;;
25531;SDS011;13429;48.816;9.118;2022-10-30T00:17:42;12.45;;;6.07;;
25531;SDS011;13429;48.816;9.118;2022-10-30T00:20:10;15.40;;;6.50;;
25531;SDS011;13429;48.816;9.118;2022-10-30T00:22:36;18.65;;;6.32;;
25531;SDS011;13429;48.816;9.118;2022-10-30T00:25:03;21.60;;;7.43;;
25531;SDS011;13429;48.816;9.118;2022-10-30T00:27:29;17.30;;;6.30;;
25531;SDS011;13429;48.816;9.118;2022-10-30T00:29:54;13.38;;;6.28;;
25531;SDS011;13429;48.816;9.118;2022-10-30T00:32:21;11.48;;;6.25;;
25531;SDS011;13429;48.816;9.118;2022-10-30T00:34:47;18.58;;;7.25;;
25531;SDS011;13429;48.816;9.118;2022-10-30T00:37:13;10.15;;;5.50;;
25531;SDS011;13429;48.816;9.118;2022-10-30T00:39:39;15.35;;;5.32;;
25531;SDS011;13429;48.816;9.118;2022-10-30T00:42:05;22.27;;;6.03;;
25531;SDS011;13429;48.816;9.118;2022-10-30T00:47:05;12.88;;;5.88;;
25531;SDS011;13429;48.816;9.118;2022-10-30T00:49:36;14.32;;;5.00;;
25531;SDS011;13429;48.816;9.118;2022-10-30T00:52:04;10.30;;;5.22;;
25531;SDS011;13429;48.816;9.118;2022-10-30T00:54:32;15.13;;;4.88;;
25531;SDS011;13429;48.816;9.118;2022-10-30T00:56:58;13.75;;;5.68;;
25531;SDS011;13429;48.816;9.118;2022-10-30T00:59:26;20.10;;;5.45;;
25531;SDS011;13429;48.816;9.118;2022-10-30T01:01:53;13.82;;;4.43;;
25531;SDS011;13429;48.816;9.118;2022-10-30T01:04:19;19.50;;;7.25;;
25531;SDS011;13429;48.816;9.118;2022-10-30T01:06:45;20.33;;;8.20;;
25531;SDS011;13429;48.816;9.118;2022-10-30T01:09:13;19.20;;;8.52;;
25531;SDS011;13429;48.816;9.118;2022-10-30T01:11:39;17.40;;;7.57;;
25531;SDS011;13429;48.816;9.118;2022-10-30T01:14:06;16.52;;;7.03;;
25531;SDS011;13429;48.816;9.118;2022-10-30T01:22:00;14.40;;;6.78;;
25531;SDS011;13429;48.816;9.118;2022-10-30T01:27:05;16.48;;;6.80;;
25531;SDS011;13429;48.816;9.118;2022-10-30T01:34:46;18.55;;;7.07;;
25531;SDS011;13429;48.816;9.118;2022-10-30T01:37:21;19.48;;;7.45;;
25531;SDS011;13429;48.816;9.118;2022-10-30T01:39:49;13.93;;;6.45;;
25531;SDS011;13429;48.816;9.118;2022-10-30T01:45:00;16.75;;;7.30;;
25531;SDS011;13429;48.816;9.118;2022-10-30T01:52:54;17.80;;;7.95;;
25531;SDS011;13429;48.816;9.118;2022-10-30T01:55:28;18.40;;;8.32;;
25531;SDS011;13429;48.816;9.118;2022-10-30T01:58:17;22.02;;;9.43;;
25531;SDS011;13429;48.816;9.118;2022-10-30T02:00:46;27.88;;;8.27;;
25531;SDS011;13429;48.816;9.118;2022-10-30T02:03:12;21.17;;;8.32;;
25531;SDS011;13429;48.816;9.118;2022-10-30T02:05:47;16.48;;;7.82;;
25531;SDS011;13429;48.816;9.118;2022-10-30T02:08:13;19.52;;;8.10;;
25531;SDS011;13429;48.816;9.118;2022-10-30T02:10:40;31.83;;;7.90;;
25531;SDS011;13429;48.816;9.118;2022-10-30T02:13:07;20.95;;;8.23;;
25531;SDS011;13429;48.816;9.118;2022-10-30T02:15:33;15.15;;;7.90;;
25531;SDS011;13429;48.816;9.118;2022-10-30T02:17:59;14.60;;;7.72;;
25531;SDS011;13429;48.816;9.118;2022-10-30T02:20:25;17.55;;;7.25;;
25531;SDS011;13429;48.816;9.118;2022-10-30T02:22:51;14.73;;;7.72;;
25531;SDS011;13429;48.816;9.118;2022-10-30T02:25:17;12.70;;;6.45;;
25531;SDS011;13429;48.816;9.118;2022-10-30T02:27:43;12.98;;;7.43;;
25531;SDS011;13429;48.816;9.118;2022-10-30T02:30:09;19.85;;;8.73;;
25531;SDS011;13429;48.816;9.118;2022-10-30T02:32:35;18.58;;;7.78;;
25531;SDS011;13429;48.816;9.118;2022-10-30T02:35:01;14.98;;;7.95;;
25531;SDS011;13429;48.816;9.118;2022-10-30T02:37:27;19.17;;;8.23;;
25531;SDS011;13429;48.816;9.118;2022-10-30T02:39:54;17.75;;;7.97;;
25531;SDS011;13429;48.816;9.118;2022-10-30T02:42:20;13.13;;;7.03;;
25531;SDS011;13429;48.816;9.118;2022-10-30T02:44:47;13.50;;;6.97;;
25531;SDS011;13429;48.816;9.118;2022-10-30T02:47:13;14.52;;;6.78;;
25531;SDS011;13429;48.816;9.118;2022-10-30T02:49:39;13.13;;;6.75;;
25531;SDS011;13429;48.816;9.118;2022-10-30T02:52:05;16.50;;;7.72;;
25531;SDS011;13429;48.816;9.118;2022-10-30T02:54:32;20.15;;;6.90;;
25531;SDS011;13429;48.816;9.118;2022-10-30T02:56:58;14.10;;;7.43;;
25531;SDS011;13429;48.816;9.118;2022-10-30T02:59:24;14.90;;;8.02;;
25531;SDS011;13429;48.816;9.118;2022-10-30T03:01:50;16.83;;;7.45;;
25531;SDS011;13429;48.816;9.118;2022-10-30T03:04:16;13.38;;;7.05;;
25531;SDS011;13429;48.816;9.118;2022-10-30T03:06:42;15.52;;;6.63;;
25531;SDS011;13429;48.816;9.118;2022-10-30T03:09:08;17.77;;;6.75;;
25531;SDS011;13429;48.816;9.118;2022-10-30T03:11:34;14.50;;;7.10;;
25531;SDS011;13429;48.816;9.118;2022-10-30T03:14:00;18.13;;;7.50;;
25531;SDS011;13429;48.816;9.118;2022-10-30T03:16:26;11.90;;;6.18;;
25531;SDS011;13429;48.816;9.118;2022-10-30T03:18:53;12.98;;;6.90;;
25531;SDS011;13429;48.816;9.118;2022-10-30T03:21:20;13.50;;;6.85;;
25531;SDS011;13429;48.816;9.118;2022-10-30T03:23:46;14.02;;;7.03;;
25531;SDS011;13429;48.816;9.118;2022-10-30T03:26:14;15.65;;;7.45;;
25531;SDS011;13429;48.816;9.118;2022-10-30T03:28:40;14.57;;;6.82;;
25531;SDS011;13429;48.816;9.118;2022-10-30T03:31:07;17.15;;;7.50;;
25531;SDS011;13429;48.816;9.118;2022-10-30T03:33:34;14.30;;;7.13;;
25531;SDS011;13429;48.816;9.118;2022-10-30T03:36:00;12.77;;;7.05;;
25531;SDS011;13429;48.816;9.118;2022-10-30T03:38:26;17.00;;;6.68;;
25531;SDS011;13429;48.816;9.118;2022-10-30T03:40:52;12.48;;;6.07;;
25531;SDS011;13429;48.816;9.118;2022-10-30T03:43:18;16.15;;;6.38;;
25531;SDS011;13429;48.816;9.118;2022-10-30T03:45:45;14.68;;;6.85;;
25531;SDS011;13429;48.816;9.118;2022-10-30T03:48:11;13.15;;;7.07;;
25531;SDS011;13429;48.816;9.118;2022-10-30T03:50:37;13.10;;;6.38;;
25531;SDS011;13429;48.816;9.118;2022-10-30T03:53:03;12.43;;;7.15;;
25531;SDS011;13429;48.816;9.118;2022-10-30T03:58:33;20.45;;;7.07;;
25531;SDS011;13429;48.816;9.118;2022-10-30T04:01:02;15.27;;;7.80;;
25531;SDS011;13429;48.816;9.118;2022-10-30T04:03:28;17.08;;;7.47;;
25531;SDS011;13429;48.816;9.118;2022-10-30T04:05:55;17.98;;;8.32;;
25531;SDS011;13429;48.816;9.118;2022-10-30T04:08:21;13.73;;;6.72;;
25531;SDS011;13429;48.816;9.118;2022-10-30T04:10:47;13.32;;;6.22;;
25531;SDS011;13429;48.816;9.118;2022-10-30T04:13:13;12.35;;;6.47;;
25531;SDS011;13429;48.816;9.118;2022-10-30T04:15:40;13.02;;;6.22;;
25531;SDS011;13429;48.816;9.118;2022-10-30T04:18:06;11.50;;;5.20;;
25531;SDS011;13429;48.816;9.118;2022-10-30T04:20:32;19.65;;;6.15;;
25531;SDS011;13429;48.816;9.118;2022-10-30T04:22:59;14.45;;;5.93;;
25531;SDS011;13429;48.816;9.118;2022-10-30T04:25:26;13.52;;;5.75;;
25531;SDS011;13429;48.816;9.118;2022-10-30T04:27:53;15.80;;;6.05;;
25531;SDS011;13429;48.816;9.118;2022-10-30T04:30:19;16.38;;;5.82;;
25531;SDS011;13429;48.816;9.118;2022-10-30T04:32:46;14.30;;;5.35;;
25531;SDS011;13429;48.816;9.118;2022-10-30T04:35:12;15.25;;;5.22;;
25531;SDS011;13429;48.816;9.118;2022-10-30T04:37:39;16.60;;;5.80;;
25531;SDS011;13429;48.816;9.118;2022-10-30T04:40:05;12.10;;;5.50;;
25531;SDS011;13429;48.816;9.118;2022-10-30T04:42:31;10.98;;;5.90;;
25531;SDS011;13429;48.816;9.118;2022-10-30T04:44:57;10.07;;;6.00;;
25531;SDS011;13429;48.816;9.118;2022-10-30T04:47:23;16.20;;;6.10;;
25531;SDS011;13429;48.816;9.118;2022-10-30T04:49:49;14.38;;;5.75;;
25531;SDS011;13429;48.816;9.118;2022-10-30T04:52:15;13.50;;;6.72;;
25531;SDS011;13429;48.816;9.118;2022-10-30T04:54:41;9.27;;;5.13;;
25531;SDS011;13429;48.816;9.118;2022-10-30T04:57:06;12.38;;;6.20;;
25531;SDS011;13429;48.816;9.118;2022-10-30T04:59:33;12.52;;;5.25;;
25531;SDS011;13429;48.816;9.118;2022-10-30T05:01:59;12.32;;;5.15;;
25531;SDS011;13429;48.816;9.118;2022-10-30T05:04:24;13.20;;;4.90;;
25531;SDS011;13429;48.816;9.118;2022-10-30T05:06:50;16.63;;;5.30;;
25531;SDS011;13429;48.816;9.118;2022-10-30T05:09:16;7.25;;;4.55;;
25531;SDS011;13429;48.816;9.118;2022-10-30T05:11:42;12.02;;;4.57;;
25531;SDS011;13429;48.816;9.118;2022-10-30T05:14:08;11.77;;;5.03;;
25531;SDS011;13429;48.816;9.118;2022-10-30T05:16:34;10.07;;;4.80;;
25531;SDS011;13429;48.816;9.118;2022-10-30T05:19:00;10.43;;;4.90;;
25531;SDS011;13429;48.816;9.118;2022-10-30T05:21:26;10.23;;;5.18;;
25531;SDS011;13429;48.816;9.118;2022-10-30T05:23:52;11.80;;;5.30;;
25531;SDS011;13429;48.816;9.118;2022-10-30T05:26:18;13.35;;;4.95;;
25531;SDS011;13429;48.816;9.118;2022-10-30T05:28:44;15.30;;;5.60;;
25531;SDS011;13429;48.816;9.118;2022-10-30T05:31:10;10.48;;;5.38;;
25531;SDS011;13429;48.816;9.118;2022-10-30T05:33:36;12.77;;;5.70;;
25531;SDS011;13429;48.816;9.118;2022-10-30T05:36:02;13.02;;;5.28;;
25531;SDS011;13429;48.816;9.118;2022-10-30T05:38:28;8.45;;;4.43;;
25531;SDS011;13429;48.816;9.118;2022-10-30T05:40:54;13.10;;;4.88;;
25531;SDS011;13429;48.816;9.118;2022-10-30T05:43:20;10.45;;;4.95;;
25531;SDS011;13429;48.816;9.118;2022-10-30T05:45:47;12.00;;;5.28;;
25531;SDS011;13429;48.816;9.118;2022-10-30T05:48:13;10.32;;;5.22;;
25531;SDS011;13429;48.816;9.118;2022-10-30T05:50:39;9.13;;;4.75;;
25531;SDS011;13429;48.816;9.118;2022-10-30T05:53:05;12.70;;;4.93;;
25531;SDS011;13429;48.816;9.118;2022-10-30T05:55:32;9.02;;;4.38;;
25531;SDS011;13429;48.816;9.118;2022-10-30T05:57:59;15.82;;;5.78;;
25531;SDS011;13429;48.816;9.118;2022-10-30T06:00:26;13.40;;;4.68;;
25531;SDS011;13429;48.816;9.118;2022-10-30T06:02:57;11.82;;;5.78;;
25531;SDS011;13429;48.816;9.118;2022-10-30T06:05:23;15.63;;;5.10;;
25531;SDS011;13429;48.816;9.118;2022-10-30T06:07:49;11.93;;;5.10;;
25531;SDS011;13429;48.816;9.118;2022-10-30T06:10:15;14.57;;;5.13;;
25531;SDS011;13429;48.816;9.118;2022-10-30T06:12:41;10.70;;;4.80;;
25531;SDS011;13429;48.816;9.118;2022-10-30T06:15:07;11.75;;;5.18;;
25531;SDS011;13429;48.816;9.118;2022-10-30T06:17:33;14.60;;;5.72;;
25531;SDS011;13429;48.816;9.118;2022-10-30T06:19:59;10.55;;;5.00;;
25531;SDS011;13429;48.816;9.118;2022-10-30T06:22:25;10.93;;;5.82;;
25531;SDS011;13429;48.816;9.118;2022-10-30T06:24:50;13.25;;;6.15;;
25531;SDS011;13429;48.816;9.118;2022-10-30T06:27:16;10.20;;;5.13;;
25531;SDS011;13429;48.816;9.118;2022-10-30T06:29:42;12.30;;;5.43;;
25531;SDS011;13429;48.816;9.118;2022-10-30T06:32:08;10.63;;;5.35;;
25531;SDS011;13429;48.816;9.118;2022-10-30T06:34:34;13.20;;;5.07;;
25531;SDS011;13429;48.816;9.118;2022-10-30T06:37:00;12.35;;;5.75;;
25531;SDS011;13429;48.816;9.118;2022-10-30T06:39:26;10.82;;;5.15;;
25531;SDS011;13429;48.816;9.118;2022-10-30T06:41:52;11.93;;;5.20;;
25531;SDS011;13429;48.816;9.118;2022-10-30T06:44:18;15.68;;;5.25;;
25531;SDS011;13429;48.816;9.118;2022-10-30T06:46:44;12.32;;;5.95;;
25531;SDS011;13429;48.816;9.118;2022-10-30T06:49:10;14.75;;;5.22;;
25531;SDS011;13429;48.816;9.118;2022-10-30T06:51:36;15.35;;;5.05;;
25531;SDS011;13429;48.816;9.118;2022-10-30T06:54:02;12.30;;;5.53;;
25531;SDS011;13429;48.816;9.118;2022-10-30T06:56:28;12.43;;;5.78;;
25531;SDS011;13429;48.816;9.118;2022-10-30T06:58:54;12.77;;;5.22;;
25531;SDS011;13429;48.816;9.118;2022-10-30T07:01:20;11.27;;;5.30;;
25531;SDS011;13429;48.816;9.118;2022-10-30T07:03:46;11.63;;;5.25;;
25531;SDS011;13429;48.816;9.118;2022-10-30T07:06:12;12.82;;;6.43;;
25531;SDS011;13429;48.816;9.118;2022-10-30T07:08:38;10.43;;;5.05;;
25531;SDS011;13429;48.816;9.118;2022-10-30T07:11:04;11.52;;;5.15;;
25531;SDS011;13429;48.816;9.118;2022-10-30T07:13:30;19.67;;;6.43;;
25531;SDS011;13429;48.816;9.118;2022-10-30T07:15:57;15.57;;;6.05;;
25531;SDS011;13429;48.816;9.118;2022-10-30T07:18:23;14.73;;;6.38;;
25531;SDS011;13429;48.816;9.118;2022-10-30T07:20:52;14.32;;;6.53;;
25531;SDS011;13429;48.816;9.118;2022-10-30T07:23:20;12.90;;;5.80;;
25531;SDS011;13429;48.816;9.118;2022-10-30T07:25:45;16.65;;;6.63;;
25531;SDS011;13429;48.816;9.118;2022-10-30T07:28:11;10.57;;;4.95;;
25531;SDS011;13429;48.816;9.118;2022-10-30T07:30:37;15.25;;;6.32;;
25531;SDS011;13429;48.816;9.118;2022-10-30T07:33:04;9.80;;;4.63;;
25531;SDS011;13429;48.816;9.118;2022-10-30T07:35:30;14.13;;;6.18;;
25531;SDS011;13429;48.816;9.118;2022-10-30T07:38:00;19.90;;;7.85;;
25531;SDS011;13429;48.816;9.118;2022-10-30T07:40:27;12.47;;;5.80;;
25531;SDS011;13429;48.816;9.118;2022-10-30T07:42:56;14.45;;;5.45;;
25531;SDS011;13429;48.816;9.118;2022-10-30T07:45:22;12.18;;;6.85;;
25531;SDS011;13429;48.816;9.118;2022-10-30T07:47:48;16.60;;;7.20;;
25531;SDS011;13429;48.816;9.118;2022-10-30T07:50:14;18.67;;;6.82;;
25531;SDS011;13429;48.816;9.118;2022-10-30T07:52:40;15.80;;;7.28;;
25531;SDS011;13429;48.816;9.118;2022-10-30T07:55:06;14.20;;;5.80;;
25531;SDS011;13429;48.816;9.118;2022-10-30T07:57:36;16.85;;;6.30;;
25531;SDS011;13429;48.816;9.118;2022-10-30T08:00:03;16.92;;;6.05;;
25531;SDS011;13429;48.816;9.118;2022-10-30T08:02:29;15.18;;;5.30;;
25531;SDS011;13429;48.816;9.118;2022-10-30T08:04:55;16.02;;;7.13;;
25531;SDS011;13429;48.816;9.118;2022-10-30T08:07:21;19.77;;;6.30;;
25531;SDS011;13429;48.816;9.118;2022-10-30T08:09:47;8.27;;;4.75;;
25531;SDS011;13429;48.816;9.118;2022-10-30T08:12:13;12.95;;;5.93;;
25531;SDS011;13429;48.816;9.118;2022-10-30T08:14:39;12.35;;;5.30;;
25531;SDS011;13429;48.816;9.118;2022-10-30T08:17:05;13.43;;;5.97;;
25531;SDS011;13429;48.816;9.118;2022-10-30T08:19:34;12.43;;;5.55;;
25531;SDS011;13429;48.816;9.118;2022-10-30T08:22:00;10.23;;;4.85;;
25531;SDS011;13429;48.816;9.118;2022-10-30T08:24:26;13.45;;;5.10;;
25531;SDS011;13429;48.816;9.118;2022-10-30T08:26:52;14.18;;;5.68;;
25531;SDS011;13429;48.816;9.118;2022-10-30T08:29:18;12.20;;;5.93;;
25531;SDS011;13429;48.816;9.118;2022-10-30T08:31:46;10.88;;;5.85;;
25531;SDS011;13429;48.816;9.118;2022-10-30T08:34:13;16.73;;;5.28;;
25531;SDS011;13429;48.816;9.118;2022-10-30T08:36:39;14.80;;;5.20;;
25531;SDS011;13429;48.816;9.118;2022-10-30T08:39:06;11.27;;;4.72;;
25531;SDS011;13429;48.816;9.118;2022-10-30T08:41:32;15.45;;;5.22;;
25531;SDS011;13429;48.816;9.118;2022-10-30T08:43:58;14.73;;;5.80;;
25531;SDS011;13429;48.816;9.118;2022-10-30T08:46:24;10.38;;;5.13;;
25531;SDS011;13429;48.816;9.118;2022-10-30T08:48:50;17.35;;;5.82;;
25531;SDS011;13429;48.816;9.118;2022-10-30T08:51:16;15.90;;;5.32;;
25531;SDS011;13429;48.816;9.118;2022-10-30T08:53:42;8.85;;;5.00;;
25531;SDS011;13429;48.816;9.118;2022-10-30T08:56:08;12.13;;;5.35;;
25531;SDS011;13429;48.816;9.118;2022-10-30T08:58:34;11.15;;;5.60;;
25531;SDS011;13429;48.816;9.118;2022-10-30T09:01:00;11.93;;;5.25;;
25531;SDS011;13429;48.816;9.118;2022-10-30T09:03:25;14.13;;;5.35;;
25531;SDS011;13429;48.816;9.118;2022-10-30T09:05:51;19.20;;;6.18;;
25531;SDS011;13429;48.816;9.118;2022-10-30T09:08:17;12.23;;;5.40;;
25531;SDS011;13429;48.816;9.118;2022-10-30T09:10:43;15.00;;;5.85;;
25531;SDS011;13429;48.816;9.118;2022-10-30T09:13:09;11.50;;;4.70;;
25531;SDS011;13429;48.816;9.118;2022-10-30T09:15:37;12.10;;;5.85;;
25531;SDS011;13429;48.816;9.118;2022-10-30T09:18:03;11.15;;;4.78;;
25531;SDS011;13429;48.816;9.118;2022-10-30T09:20:29;11.45;;;4.97;;
25531;SDS011;13429;48.816;9.118;2022-10-30T09:22:55;14.13;;;5.75;;
25531;SDS011;13429;48.816;9.118;2022-10-30T09:25:21;12.38;;;4.78;;
25531;SDS011;13429;48.816;9.118;2022-10-30T09:27:47;11.35;;;5.00;;
25531;SDS011;13429;48.816;9.118;2022-10-30T09:30:13;12.90;;;5.63;;
25531;SDS011;13429;48.816;9.118;2022-10-30T09:32:39;10.57;;;5.13;;
25531;SDS011;13429;48.816;9.118;2022-10-30T09:35:05;12.90;;;4.40;;
25531;SDS011;13429;48.816;9.118;2022-10-30T09:37:35;9.80;;;4.32;;
25531;SDS011;13429;48.816;9.118;2022-10-30T09:40:01;11.15;;;5.22;;
25531;SDS011;13429;48.816;9.118;2022-10-30T09:42:32;9.40;;;4.95;;
25531;SDS011;13429;48.816;9.118;2022-10-30T09:45:05;15.15;;;5.20;;
25531;SDS011;13429;48.816;9.118;2022-10-30T09:50:18;13.32;;;5.00;;
25531;SDS011;13429;48.816;9.118;2022-10-30T09:53:02;14.88;;;5.70;;
25531;SDS011;13429;48.816;9.118;2022-10-30T10:00:53;11.02;;;4.50;;
25531;SDS011;13429;48.816;9.118;2022-10-30T10:05:59;7.55;;;4.38;;
25531;SDS011;13429;48.816;9.118;2022-10-30T10:08:39;15.30;;;5.25;;
25531;SDS011;13429;48.816;9.118;2022-10-30T10:11:13;14.27;;;4.40;;
25531;SDS011;13429;48.816;9.118;2022-10-30T10:13:52;10.23;;;4.40;;
25531;SDS011;13429;48.816;9.118;2022-10-30T10:16:19;10.35;;;4.07;;
25531;SDS011;13429;48.816;9.118;2022-10-30T10:18:47;11.50;;;4.28;;
25531;SDS011;13429;48.816;9.118;2022-10-30T10:21:25;12.65;;;4.22;;
25531;SDS011;13429;48.816;9.118;2022-10-30T10:23:53;11.75;;;3.95;;
25531;SDS011;13429;48.816;9.118;2022-10-30T10:26:22;10.75;;;4.40;;
25531;SDS011;13429;48.816;9.118;2022-10-30T10:31:50;16.73;;;4.32;;
25531;SDS011;13429;48.816;9.118;2022-10-30T10:36:54;11.70;;;4.10;;
25531;SDS011;13429;48.816;9.118;2022-10-30T10:39:36;13.05;;;4.60;;
25531;SDS011;13429;48.816;9.118;2022-10-30T10:52:48;8.68;;;3.40;;
25531;SDS011;13429;48.816;9.118;2022-10-30T10:55:20;10.52;;;3.35;;
25531;SDS011;13429;48.816;9.118;2022-10-30T10:57:47;13.52;;;4.90;;
25531;SDS011;13429;48.816;9.118;2022-10-30T11:00:14;13.98;;;4.28;;
25531;SDS011;13429;48.816;9.118;2022-10-30T11:03:03;14.20;;;4.13;;
25531;SDS011;13429;48.816;9.118;2022-10-30T11:08:28;9.30;;;3.80;;
25531;SDS011;13429;48.816;9.118;2022-10-30T11:11:01;9.53;;;3.90;;
25531;SDS011;13429;48.816;9.118;2022-10-30T11:13:30;12.82;;;3.78;;
25531;SDS011;13429;48.816;9.118;2022-10-30T11:18:22;9.88;;;3.90;;
25531;SDS011;13429;48.816;9.118;2022-10-30T11:20:56;18.85;;;4.57;;
25531;SDS011;13429;48.816;9.118;2022-10-30T11:23:44;10.57;;;4.22;;
25531;SDS011;13429;48.816;9.118;2022-10-30T11:26:31;14.38;;;4.22;;
25531;SDS011;13429;48.816;9.118;2022-10-30T11:31:26;8.45;;;3.03;;
25531;SDS011;13429;48.816;9.118;2022-10-30T11:36:39;19.17;;;4.72;;
25531;SDS011;13429;48.816;9.118;2022-10-30T11:39:09;10.60;;;4.45;;
25531;SDS011;13429;48.816;9.118;2022-10-30T11:41:36;8.68;;;3.42;;
25531;SDS011;13429;48.816;9.118;2022-10-30T11:44:03;9.85;;;3.30;;
25531;SDS011;13429;48.816;9.118;2022-10-30T11:46:29;10.40;;;3.58;;
25531;SDS011;13429;48.816;9.118;2022-10-30T11:48:55;12.80;;;4.07;;
25531;SDS011;13429;48.816;9.118;2022-10-30T11:51:31;10.48;;;3.92;;
25531;SDS011;13429;48.816;9.118;2022-10-30T11:53:58;10.25;;;4.30;;
25531;SDS011;13429;48.816;9.118;2022-10-30T11:56:25;8.63;;;3.30;;
25531;SDS011;13429;48.816;9.118;2022-10-30T11:58:53;7.15;;;3.65;;
25531;SDS011;13429;48.816;9.118;2022-10-30T12:03:52;8.85;;;3.80;;
25531;SDS011;13429;48.816;9.118;2022-10-30T12:09:03;9.93;;;3.83;;
25531;SDS011;13429;48.816;9.118;2022-10-30T12:11:30;11.18;;;4.10;;
25531;SDS011;13429;48.816;9.118;2022-10-30T12:13:57;10.07;;;4.20;;
25531;SDS011;13429;48.816;9.118;2022-10-30T12:16:23;10.13;;;4.38;;
25531;SDS011;13429;48.816;9.118;2022-10-30T12:18:50;5.20;;;2.83;;
25531;SDS011;13429;48.816;9.118;2022-10-30T12:21:18;9.60;;;3.55;;
25531;SDS011;13429;48.816;9.118;2022-10-30T12:23:49;10.35;;;4.05;;
25531;SDS011;13429;48.816;9.118;2022-10-30T12:26:15;10.63;;;4.03;;
25531;SDS011;13429;48.816;9.118;2022-10-30T12:28:46;9.77;;;3.60;;
25531;SDS011;13429;48.816;9.118;2022-10-30T12:31:16;10.25;;;4.15;;
25531;SDS011;13429;48.816;9.118;2022-10-30T12:36:12;9.13;;;4.13;;
25531;SDS011;13429;48.816;9.118;2022-10-30T12:38:58;6.95;;;3.45;;
25531;SDS011;13429;48.816;9.118;2022-10-30T12:41:31;11.93;;;4.70;;
25531;SDS011;13429;48.816;9.118;2022-10-30T12:46:37;11.40;;;3.83;;
25531;SDS011;13429;48.816;9.118;2022-10-30T12:49:06;10.57;;;4.18;;
25531;SDS011;13429;48.816;9.118;2022-10-30T12:51:34;7.60;;;3.78;;
25531;SDS011;13429;48.816;9.118;2022-10-30T12:54:05;10.35;;;4.57;;
25531;SDS011;13429;48.816;9.118;2022-10-30T12:56:33;11.73;;;3.85;;
25531;SDS011;13429;48.816;9.118;2022-10-30T13:04:14;10.80;;;4.40;;
25531;SDS011;13429;48.816;9.118;2022-10-30T13:06:57;9.88;;;4.00;;
25531;SDS011;13429;48.816;9.118;2022-10-30T13:09:43;10.20;;;4.05;;
25531;SDS011;13429;48.816;9.118;2022-10-30T13:12:13;10.85;;;3.72;;
25531;SDS011;13429;48.816;9.118;2022-10-30T13:17:15;7.88;;;3.38;;
25531;SDS011;13429;48.816;9.118;2022-10-30T13:19:41;8.70;;;3.47;;
25531;SDS011;13429;48.816;9.118;2022-10-30T13:27:25;8.88;;;3.58;;
25531;SDS011;13429;48.816;9.118;2022-10-30T13:29:53;11.25;;;4.55;;
25531;SDS011;13429;48.816;9.118;2022-10-30T13:32:27;9.48;;;4.32;;
25531;SDS011;13429;48.816;9.118;2022-10-30T13:37:26;12.55;;;4.50;;
25531;SDS011;13429;48.816;9.118;2022-10-30T13:40:16;13.20;;;5.03;;
25531;SDS011;13429;48.816;9.118;2022-10-30T13:42:49;8.25;;;4.30;;
25531;SDS011;13429;48.816;9.118;2022-10-30T13:50:31;10.60;;;4.35;;
25531;SDS011;13429;48.816;9.118;2022-10-30T13:53:00;12.45;;;4.47;;
25531;SDS011;13429;48.816;9.118;2022-10-30T13:55:28;8.73;;;4.18;;
25531;SDS011;13429;48.816;9.118;2022-10-30T13:58:15;10.13;;;4.32;;
25531;SDS011;13429;48.816;9.118;2022-10-30T14:01:01;7.43;;;3.67;;
25531;SDS011;13429;48.816;9.118;2022-10-30T14:03:36;10.05;;;4.28;;
25531;SDS011;13429;48.816;9.118;2022-10-30T14:08:51;14.80;;;4.63;;
25531;SDS011;13429;48.816;9.118;2022-10-30T14:11:21;9.48;;;4.72;;
25531;SDS011;13429;48.816;9.118;2022-10-30T14:16:37;12.63;;;5.05;;
25531;SDS011;13429;48.816;9.118;2022-10-30T14:19:05;24.65;;;5.50;;
25531;SDS011;13429;48.816;9.118;2022-10-30T14:24:17;12.05;;;4.47;;
25531;SDS011;13429;48.816;9.118;2022-10-30T14:31:56;10.93;;;5.30;;
25531;SDS011;13429;48.816;9.118;2022-10-30T14:37:06;12.82;;;4.90;;
25531;SDS011;13429;48.816;9.118;2022-10-30T14:39:42;10.15;;;4.47;;
25531;SDS011;13429;48.816;9.118;2022-10-30T14:42:17;9.13;;;4.40;;
25531;SDS011;13429;48.816;9.118;2022-10-30T14:52:51;10.75;;;5.10;;
25531;SDS011;13429;48.816;9.118;2022-10-30T15:05:43;15.80;;;5.43;;
25531;SDS011;13429;48.816;9.118;2022-10-30T15:10:50;11.38;;;5.00;;
25531;SDS011;13429;48.816;9.118;2022-10-30T15:13:23;10.85;;;5.03;;
25531;SDS011;13429;48.816;9.118;2022-10-30T15:15:59;14.50;;;6.15;;
25531;SDS011;13429;48.816;9.118;2022-10-30T15:18:26;15.68;;;4.80;;
25531;SDS011;13429;48.816;9.118;2022-10-30T15:20:52;8.20;;;4.80;;
25531;SDS011;13429;48.816;9.118;2022-10-30T15:23:21;10.80;;;4.70;;
25531;SDS011;13429;48.816;9.118;2022-10-30T15:25:50;9.05;;;4.47;;
25531;SDS011;13429;48.816;9.118;2022-10-30T15:28:17;9.80;;;5.25;;
25531;SDS011;13429;48.816;9.118;2022-10-30T15:31:00;7.93;;;4.70;;
25531;SDS011;13429;48.816;9.118;2022-10-30T15:33:26;8.65;;;4.88;;
25531;SDS011;13429;48.816;9.118;2022-10-30T15:35:55;11.38;;;4.85;;
25531;SDS011;13429;48.816;9.118;2022-10-30T15:38:21;9.75;;;4.43;;
25531;SDS011;13429;48.816;9.118;2022-10-30T15:40:47;12.85;;;4.95;;
25531;SDS011;13429;48.816;9.118;2022-10-30T15:43:13;15.07;;;4.25;;
25531;SDS011;13429;48.816;9.118;2022-10-30T15:45:41;14.65;;;4.82;;
25531;SDS011;13429;48.816;9.118;2022-10-30T15:48:27;12.80;;;4.80;;
25531;SDS011;13429;48.816;9.118;2022-10-30T15:50:57;10.50;;;4.30;;
25531;SDS011;13429;48.816;9.118;2022-10-30T15:53:25;7.55;;;5.13;;
25531;SDS011;13429;48.816;9.118;2022-10-30T15:55:56;9.65;;;4.38;;
25531;SDS011;13429;48.816;9.118;2022-10-30T15:58:23;10.38;;;4.93;;
25531;SDS011;13429;48.816;9.118;2022-10-30T16:00:56;9.98;;;5.60;;
25531;SDS011;13429;48.816;9.118;2022-10-30T16:03:22;8.82;;;4.68;;
25531;SDS011;13429;48.816;9.118;2022-10-30T16:05:48;9.20;;;5.22;;
25531;SDS011;13429;48.816;9.118;2022-10-30T16:08:16;11.15;;;5.60;;
25531;SDS011;13429;48.816;9.118;2022-10-30T16:10:43;10.85;;;5.25;;
25531;SDS011;13429;48.816;9.118;2022-10-30T16:13:11;17.30;;;6.18;;
25531;SDS011;13429;48.816;9.118;2022-10-30T16:15:41;18.20;;;7.32;;
25531;SDS011;13429;48.816;9.118;2022-10-30T16:18:13;12.27;;;5.95;;
25531;SDS011;13429;48.816;9.118;2022-10-30T16:20:41;16.83;;;6.03;;
25531;SDS011;13429;48.816;9.118;2022-10-30T16:23:08;10.00;;;5.35;;
25531;SDS011;13429;48.816;9.118;2022-10-30T16:25:34;12.80;;;6.43;;
25531;SDS011;13429;48.816;9.118;2022-10-30T16:28:02;14.88;;;6.10;;
25531;SDS011;13429;48.816;9.118;2022-10-30T16:30:29;15.82;;;5.82;;
25531;SDS011;13429;48.816;9.118;2022-10-30T16:32:56;11.70;;;5.00;;
25531;SDS011;13429;48.816;9.118;2022-10-30T16:35:22;16.15;;;6.03;;
25531;SDS011;13429;48.816;9.118;2022-10-30T16:37:49;12.00;;;5.93;;
25531;SDS011;13429;48.816;9.118;2022-10-30T16:40:19;11.40;;;6.07;;
25531;SDS011;13429;48.816;9.118;2022-10-30T16:47:45;14.13;;;6.13;;
25531;SDS011;13429;48.816;9.118;2022-10-30T16:50:13;17.65;;;8.05;;
25531;SDS011;13429;48.816;9.118;2022-10-30T16:52:39;10.27;;;6.32;;
25531;SDS011;13429;48.816;9.118;2022-10-30T16:55:07;13.95;;;7.28;;
25531;SDS011;13429;48.816;9.118;2022-10-30T16:57:39;12.25;;;7.13;;